Terminal Aerodrome Forecast
Issued by NWS Central Illinois

Home | Current Version | Previous Version | Text Only | Print | Product List | Glossary On
Versions: 1 2 3 4 5 6 7 8 9 10 11 12 13 14 15 16 17 18 19
000
FTUS43 KILX 261125
TAFPIA
TAF
KPIA 261125Z 2612/2712 28011KT P6SM VCTS SCT020CB OVC060
      TEMPO 2612/2613 2SM TSRA OVC020CB
     FM261500 19009KT P6SM BKN035
     FM262000 20010KT P6SM SCT110
     FM270000 17007KT P6SM VCSH BKN100=

USA.gov is the U.S. government's official web portal to all federal, state and local government web resources and services.